createdAt,value
2018-05-03T00:03:39.344Z,90.55
2018-05-03T00:08:34.304Z,90.83
2018-05-03T00:13:30.410Z,93.41
2018-05-03T00:23:34.095Z,92.69
2018-05-03T00:28:29.504Z,93.17
2018-05-03T00:33:31.756Z,93.79
2018-05-03T00:38:27.757Z,91.36
2018-05-03T00:43:29.651Z,90.64
2018-05-03T00:48:24.942Z,91.21
2018-05-03T00:58:25.255Z,91.12
2018-05-03T01:03:25.953Z,91.50
2018-05-03T01:08:20.774Z,92.55
2018-05-03T01:13:20.457Z,92.17
2018-05-03T01:18:19.067Z,93.22
2018-05-03T01:23:14.121Z,92.93
2018-05-03T01:28:09.833Z,94.93
2018-05-03T01:33:06.700Z,94.41
2018-05-03T01:38:02.104Z,95.75
2018-05-03T01:42:58.653Z,98.32
2018-05-03T01:47:53.924Z,97.75
2018-05-03T01:52:50.200Z,98.80
2018-05-03T01:57:45.810Z,99.66
2018-05-03T02:02:41.532Z,99.99
2018-05-03T02:07:37.559Z,99.99
2018-05-03T02:12:34.032Z,99.99
2018-05-03T02:17:29.859Z,99.99
2018-05-03T02:22:29.522Z,99.99
2018-05-03T02:27:28.448Z,99.99
2018-05-03T02:32:23.372Z,99.99
2018-05-03T02:37:19.807Z,99.99
2018-05-03T02:42:19.720Z,99.99
2018-05-03T02:47:14.923Z,99.99
2018-05-03T02:52:11.460Z,99.99
2018-05-03T02:57:07.403Z,99.99
2018-05-03T03:02:03.114Z,99.99
2018-05-03T03:06:59.052Z,99.99
2018-05-03T03:11:55.629Z,99.99
2018-05-03T03:16:52.459Z,99.99
2018-05-03T03:21:48.060Z,99.99
2018-05-03T03:26:43.830Z,99.99
2018-05-03T03:31:40.859Z,99.99
2018-05-03T03:36:36.360Z,99.99
2018-05-03T03:41:32.208Z,99.99
2018-05-03T03:46:28.127Z,99.99
2018-05-03T03:51:23.943Z,99.99
2018-05-03T03:56:21.115Z,99.99
2018-05-03T04:01:17.440Z,99.99
2018-05-03T04:06:13.225Z,99.99
2018-05-03T04:11:12.988Z,99.99
2018-05-03T04:16:08.856Z,99.99
2018-05-03T04:21:04.193Z,99.99
2018-05-03T04:26:05.260Z,99.99
2018-05-03T04:31:04.026Z,99.99
2018-05-03T04:36:02.812Z,99.99
2018-05-03T04:40:57.600Z,99.99
2018-05-03T04:45:57.240Z,99.99
2018-05-03T04:50:56.492Z,99.99
2018-05-03T04:55:51.506Z,99.99
2018-05-03T05:00:48.300Z,99.99
2018-05-03T05:05:43.618Z,99.99
2018-05-03T05:10:44.790Z,99.99
2018-05-03T05:15:44.064Z,99.99
2018-05-03T05:20:40.331Z,99.99
2018-05-03T05:25:35.783Z,99.99
2018-05-03T05:30:32.933Z,99.99
2018-05-03T05:35:29.774Z,99.99
2018-05-03T05:40:25.977Z,99.99
2018-05-03T05:45:21.733Z,99.99
2018-05-03T05:50:23.123Z,99.99
2018-05-03T05:55:18.042Z,99.99
2018-05-03T06:00:18.009Z,99.99
2018-05-03T06:05:16.987Z,99.99
2018-05-03T06:10:15.990Z,99.99
2018-05-03T06:15:12.150Z,99.99
2018-05-03T06:20:07.545Z,99.99
2018-05-03T06:25:04.541Z,99.75
2018-05-03T06:30:03.949Z,99.66
2018-05-03T06:34:59.068Z,98.94
2018-05-03T06:39:55.532Z,95.12
2018-05-03T06:44:51.234Z,91.78
2018-05-03T06:49:48.167Z,91.69
2018-05-03T06:54:43.568Z,90.93
2018-05-03T06:59:40.395Z,88.78
2018-05-03T07:04:37.040Z,88.49
2018-05-03T07:09:32.810Z,85.38
2018-05-03T07:14:33.307Z,81.76
2018-05-03T07:19:28.679Z,81.47
2018-05-03T07:24:26.055Z,81.51
2018-05-03T07:29:22.628Z,83.57
2018-05-03T07:34:18.342Z,85.29
2018-05-03T07:39:15.213Z,84.05
2018-05-03T07:44:15.375Z,81.26
2018-05-03T07:49:15.120Z,79.44
2018-05-03T07:54:11.662Z,79.64
2018-05-03T07:59:08.377Z,73.34
2018-05-03T08:04:08.984Z,71.68
2018-05-03T08:09:03.287Z,76.81
2018-05-03T08:13:59.028Z,76.52
2018-05-03T08:18:58.741Z,77.13
2018-05-03T08:23:55.339Z,70.92
2018-05-03T08:28:56.025Z,69.26
2018-05-03T08:33:51.760Z,67.57
2018-05-03T08:38:48.879Z,66.55
2018-05-03T08:43:44.341Z,67.99
2018-05-03T08:48:39.654Z,69.07
2018-05-03T08:53:39.581Z,73.50
2018-05-03T08:58:34.226Z,72.38
2018-05-03T09:03:34.752Z,72.00
2018-05-03T09:08:29.153Z,69.51
2018-05-03T09:13:29.359Z,68.40
2018-05-03T09:18:24.390Z,66.06
2018-05-03T09:23:20.368Z,66.77
2018-05-03T09:28:20.293Z,64.69
2018-05-03T09:33:14.752Z,65.94
2018-05-03T09:38:14.382Z,66.70
2018-05-03T09:43:09.704Z,61.63
2018-05-03T09:48:08.133Z,57.15
2018-05-03T09:53:09.020Z,56.57
2018-05-03T09:58:03.867Z,54.88
2018-05-03T10:03:00.489Z,50.58
2018-05-03T10:07:57.746Z,48.79
2018-05-03T10:12:53.746Z,50.56
2018-05-03T10:17:50.458Z,49.88
2018-05-03T10:22:46.971Z,48.11
2018-05-03T10:27:46.888Z,50.65
2018-05-03T10:32:46.386Z,50.01
2018-05-03T10:37:46.899Z,51.06
2018-05-03T10:42:45.390Z,50.15
2018-05-03T10:47:45.452Z,46.23
2018-05-03T10:52:46.473Z,45.34
2018-05-03T10:57:42.838Z,44.96
2018-05-03T11:02:40.062Z,41.80
2018-05-03T11:07:35.115Z,42.39
2018-05-03T11:12:30.146Z,47.17
2018-05-03T11:17:25.591Z,47.13
2018-05-03T11:22:22.330Z,48.85
2018-05-03T11:27:23.008Z,45.18
2018-05-03T11:32:18.280Z,46.72
2018-05-03T11:37:14.566Z,46.58
2018-05-03T11:42:13.315Z,47.68
2018-05-03T11:47:07.348Z,48.80
2018-05-03T11:52:05.750Z,50.27
2018-05-03T11:57:01.135Z,50.08
2018-05-03T12:01:55.372Z,50.63
2018-05-03T12:06:50.324Z,53.09
2018-05-03T12:11:49.697Z,54.70
2018-05-03T12:16:48.388Z,54.03
2018-05-03T12:21:43.524Z,50.51
2018-05-03T12:26:46.245Z,50.32
2018-05-03T12:31:42.251Z,49.60
2018-05-03T12:36:37.000Z,51.32
2018-05-03T12:41:33.102Z,51.04
2018-05-03T12:46:29.079Z,46.81
2018-05-03T12:51:29.467Z,46.96
2018-05-03T12:56:29.556Z,42.37
2018-05-03T13:01:29.714Z,42.47
2018-05-03T13:06:25.926Z,43.08
2018-05-03T13:11:22.261Z,41.28
2018-05-03T13:16:21.867Z,41.49
2018-05-03T13:21:18.396Z,40.34
2018-05-03T13:26:17.894Z,41.31
2018-05-03T13:31:15.432Z,43.29
2018-05-03T13:36:13.692Z,42.81
2018-05-03T13:41:12.523Z,44.73
2018-05-03T13:46:07.036Z,45.68
2018-05-03T13:51:03.774Z,46.62
2018-05-03T13:55:59.945Z,47.10
2018-05-03T14:00:55.857Z,48.35
2018-05-03T14:05:52.883Z,46.62
2018-05-03T14:10:48.458Z,46.14
2018-05-03T14:15:48.431Z,45.64
2018-05-03T14:20:44.778Z,46.03
2018-05-03T14:25:40.588Z,46.41
2018-05-03T14:30:36.499Z,45.57
2018-05-03T14:35:32.691Z,46.94
2018-05-03T14:40:32.772Z,45.21
2018-05-03T14:45:28.559Z,46.60
2018-05-03T14:50:23.839Z,47.46
2018-05-03T14:55:19.532Z,47.94
2018-05-03T15:00:15.549Z,46.81
2018-05-03T15:05:16.513Z,47.27
2018-05-03T15:10:12.351Z,47.30
2018-05-03T15:15:07.736Z,46.50
2018-05-03T15:20:08.601Z,45.76
2018-05-03T15:25:03.486Z,46.14
2018-05-03T15:29:59.905Z,46.53
2018-05-03T15:34:56.538Z,45.57
2018-05-03T15:39:52.588Z,45.59
2018-05-03T15:44:48.626Z,44.61
2018-05-03T15:49:44.872Z,44.73
2018-05-03T15:54:44.806Z,46.45
2018-05-03T15:59:43.727Z,46.36
2018-05-03T16:04:38.597Z,48.13
2018-05-03T16:09:33.884Z,49.14
2018-05-03T16:14:29.196Z,49.16
2018-05-03T16:19:28.828Z,47.46
2018-05-03T16:24:23.479Z,48.69
2018-05-03T16:29:19.136Z,49.52
2018-05-03T16:34:14.578Z,50.00
2018-05-03T16:39:14.517Z,49.33
2018-05-03T16:44:10.454Z,48.75
2018-05-03T16:49:09.942Z,49.71
2018-05-03T16:54:04.906Z,49.91
2018-05-03T16:59:00.746Z,49.81
2018-05-03T17:03:56.431Z,51.63
2018-05-03T17:08:52.364Z,52.87
2018-05-03T17:13:48.356Z,53.26
2018-05-03T17:18:44.230Z,53.45
2018-05-03T17:23:40.178Z,52.20
2018-05-03T17:28:40.126Z,52.50
2018-05-03T17:33:39.285Z,53.55
2018-05-03T17:38:34.922Z,54.32
2018-05-03T17:43:35.039Z,55.05
2018-05-03T17:48:29.908Z,54.41
2018-05-03T17:53:25.768Z,53.74
2018-05-03T17:58:21.922Z,54.86
2018-05-03T18:03:17.687Z,54.38
2018-05-03T18:08:13.525Z,55.63
2018-05-03T18:13:09.388Z,54.86
2018-05-03T18:18:06.090Z,56.10
2018-05-03T18:23:01.631Z,57.32
2018-05-03T18:27:57.698Z,58.95
2018-05-03T18:32:58.436Z,59.43
2018-05-03T18:37:54.071Z,60.29
2018-05-03T18:42:54.092Z,61.22
2018-05-03T18:47:49.117Z,62.84
2018-05-03T18:52:48.718Z,64.56
2018-05-03T18:57:43.401Z,66.06
2018-05-03T19:02:39.017Z,67.30
2018-05-03T19:07:34.822Z,68.74
2018-05-03T19:12:30.937Z,69.98
2018-05-03T19:17:26.851Z,70.90
2018-05-03T19:22:22.497Z,72.14
2018-05-03T19:27:18.220Z,72.53
2018-05-03T19:32:14.157Z,73.48
2018-05-03T19:37:14.041Z,74.69
2018-05-03T19:42:08.960Z,75.64
2018-05-03T19:47:08.739Z,77.45
2018-05-03T19:52:04.441Z,78.12
2018-05-03T19:57:00.480Z,78.85
2018-05-03T20:01:56.218Z,80.57
2018-05-03T20:06:52.327Z,80.99
2018-05-03T20:11:51.814Z,82.09
2018-05-03T20:16:47.195Z,82.95
2018-05-03T20:21:43.830Z,84.77
2018-05-03T20:26:39.228Z,86.35
2018-05-03T20:31:38.886Z,87.78
2018-05-03T20:36:35.099Z,89.21
2018-05-03T20:41:30.424Z,90.17
2018-05-03T20:46:30.329Z,90.88
2018-05-03T20:51:25.355Z,92.12
2018-05-03T20:56:21.137Z,93.08
2018-05-03T21:01:16.958Z,93.08
2018-05-03T21:06:13.566Z,93.65
2018-05-03T21:11:10.327Z,94.32
2018-05-03T21:16:06.904Z,95.46
2018-05-03T21:21:03.025Z,96.56
2018-05-03T21:26:03.416Z,97.89
2018-05-03T21:30:58.154Z,97.89
2018-05-03T21:35:57.847Z,98.75
2018-05-03T21:40:52.413Z,99.41
2018-05-03T21:45:48.343Z,99.60
2018-05-03T21:50:45.141Z,99.99
2018-05-03T21:55:40.973Z,99.99
2018-05-03T22:00:36.844Z,99.99
2018-05-03T22:05:36.384Z,99.99
2018-05-03T22:10:32.238Z,99.99
2018-05-03T22:15:28.564Z,99.99
2018-05-03T22:20:23.960Z,99.99
2018-05-03T22:25:24.765Z,99.99
2018-05-03T22:30:19.386Z,99.99
2018-05-03T22:35:16.122Z,99.99
2018-05-03T22:40:15.634Z,99.99
2018-05-03T22:45:11.846Z,99.99
2018-05-03T22:50:07.310Z,99.99
2018-05-03T22:55:04.800Z,99.99
2018-05-03T23:00:00.902Z,99.99
2018-05-03T23:04:56.273Z,99.99
2018-05-03T23:09:52.876Z,99.99
2018-05-03T23:14:48.660Z,99.99
2018-05-03T23:19:45.110Z,99.99
2018-05-03T23:24:41.453Z,99.99
2018-05-03T23:29:36.783Z,99.99
2018-05-03T23:34:32.908Z,99.99
2018-05-03T23:39:29.570Z,99.99
2018-05-03T23:44:26.081Z,99.99
2018-05-03T23:49:21.872Z,99.99
2018-05-03T23:54:18.667Z,99.99
2018-05-03T23:59:18.013Z,99.99
